Terminal Aerodrome Forecast
Issued by NWS

Home | Current Version | Previous Version | Text Only | Print | Product List | Glossary On
Versions: 1 2 3 4 5 6 7 8 9 10 11 12 13 14 15
000
FTUS46 KSEW 290902 AAA
TAFPAE
TAF AMD
KPAE 290902Z 2909/3006 34006KT P6SM BKN005 OVC010
     FM291000 05004KT P6SM BKN007 OVC015
     FM291400 23005KT P6SM -SHRA SCT010 BKN030
     FM292000 27005KT P6SM VCSH SCT010 BKN050
     FM292300 33005KT P6SM SCT020 BKN050=

USA.gov is the U.S. government's official web portal to all federal, state and local government web resources and services.